createdAt,value
2023-05-03T00:00:40.415Z,93342.00
2023-05-03T00:01:40.497Z,93346.00
2023-05-03T00:02:40.848Z,93346.00
2023-05-03T00:03:40.540Z,93340.00
2023-05-03T00:04:40.604Z,93342.00
2023-05-03T00:05:40.765Z,93340.00
2023-05-03T00:06:40.763Z,93340.00
2023-05-03T00:07:41.081Z,93342.00
2023-05-03T00:08:40.789Z,93342.00
2023-05-03T00:09:41.610Z,93340.00
2023-05-03T00:10:40.872Z,93340.00
2023-05-03T00:11:41.019Z,93340.00
2023-05-03T00:12:41.094Z,93340.00
2023-05-03T00:13:41.018Z,93340.00
2023-05-03T00:14:41.072Z,93338.00
2023-05-03T00:15:41.112Z,93338.00
2023-05-03T00:16:41.197Z,93336.00
2023-05-03T00:17:41.246Z,93338.00
2023-05-03T00:18:41.322Z,93338.00
2023-05-03T00:19:41.296Z,93336.00
2023-05-03T00:20:41.332Z,93336.00
2023-05-03T00:21:41.383Z,93336.00
2023-05-03T00:22:41.512Z,93336.00
2023-05-03T00:23:41.467Z,93334.00
2023-05-03T00:24:41.514Z,93334.00
2023-05-03T00:25:41.566Z,93334.00
2023-05-03T00:26:41.614Z,93336.00
2023-05-03T00:27:41.663Z,93336.00
2023-05-03T00:28:41.707Z,93338.00
2023-05-03T00:29:41.754Z,93338.00
2023-05-03T00:30:41.829Z,93338.00
2023-05-03T00:31:41.957Z,93336.00
2023-05-03T00:32:41.900Z,93336.00
2023-05-03T00:33:41.955Z,93334.00
2023-05-03T00:34:41.981Z,93336.00
2023-05-03T00:35:42.037Z,93334.00
2023-05-03T00:36:42.084Z,93332.00
2023-05-03T00:37:42.145Z,93334.00
2023-05-03T00:38:42.228Z,93334.00
2023-05-03T00:39:42.214Z,93334.00
2023-05-03T00:40:42.257Z,93332.00
2023-05-03T00:41:42.310Z,93332.00
2023-05-03T00:42:42.358Z,93330.00
2023-05-03T00:43:42.438Z,93330.00
2023-05-03T00:44:42.454Z,93330.00
2023-05-03T00:45:42.495Z,93328.00
2023-05-03T00:46:42.581Z,93332.00
2023-05-03T00:47:42.682Z,93328.00
2023-05-03T00:48:42.641Z,93326.00
2023-05-03T00:49:42.684Z,93330.00
2023-05-03T00:50:43.089Z,93330.00
2023-05-03T00:51:42.782Z,93328.00
2023-05-03T00:52:42.826Z,93332.00
2023-05-03T00:53:42.886Z,93328.00
2023-05-03T00:54:42.897Z,93328.00
2023-05-03T00:55:42.950Z,93328.00
2023-05-03T00:56:51.206Z,93330.00
2023-05-03T00:57:43.989Z,93328.00
2023-05-03T00:58:42.972Z,93336.00
2023-05-03T00:59:42.953Z,93326.00
2023-05-03T01:00:42.942Z,93332.00
2023-05-03T01:01:42.931Z,93334.00
2023-05-03T01:02:43.171Z,93334.00
2023-05-03T01:03:42.983Z,93334.00
2023-05-03T01:04:43.395Z,93328.00
2023-05-03T01:05:42.868Z,93328.00
2023-05-03T01:06:42.899Z,93326.00
2023-05-03T01:07:42.877Z,93328.00
2023-05-03T01:08:42.928Z,93328.00
2023-05-03T01:09:42.984Z,93330.00
2023-05-03T01:10:43.040Z,93330.00
2023-05-03T01:11:43.078Z,93328.00
2023-05-03T01:12:43.134Z,93328.00
2023-05-03T01:13:43.182Z,93332.00
2023-05-03T01:14:43.288Z,93332.00
2023-05-03T01:15:43.359Z,93332.00
2023-05-03T01:16:43.413Z,93334.00
2023-05-03T01:17:43.427Z,93330.00
2023-05-03T01:18:43.427Z,93330.00
2023-05-03T01:19:43.475Z,93334.00
2023-05-03T01:20:43.532Z,93334.00
2023-05-03T01:21:43.684Z,93334.00
2023-05-03T01:22:43.639Z,93334.00
2023-05-03T01:23:43.685Z,93340.00
2023-05-03T01:24:43.738Z,93334.00
2023-05-03T01:25:43.785Z,93334.00
2023-05-03T01:26:43.864Z,93332.00
2023-05-03T01:27:43.889Z,93332.00
2023-05-03T01:28:43.934Z,93332.00
2023-05-03T01:29:43.975Z,93330.00
2023-05-03T01:30:44.023Z,93328.00
2023-05-03T01:31:44.163Z,93330.00
2023-05-03T01:32:45.136Z,93330.00
2023-05-03T01:33:44.590Z,93326.00
2023-05-03T01:34:44.219Z,93330.00
2023-05-03T01:35:44.268Z,93328.00
2023-05-03T01:36:44.310Z,93326.00
2023-05-03T01:37:44.364Z,93326.00
2023-05-03T01:38:44.402Z,93328.00
2023-05-03T01:39:44.452Z,93328.00
2023-05-03T01:40:44.506Z,93326.00
2023-05-03T01:41:44.543Z,93328.00
2023-05-03T01:42:44.613Z,93326.00
2023-05-03T01:43:44.641Z,93328.00
2023-05-03T01:44:44.691Z,93328.00
2023-05-03T01:45:44.750Z,93328.00
2023-05-03T01:46:44.796Z,93328.00
2023-05-03T01:47:44.887Z,93330.00
2023-05-03T01:48:44.885Z,93332.00
2023-05-03T01:49:44.940Z,93330.00
2023-05-03T01:50:44.971Z,93328.00
2023-05-03T01:51:45.071Z,93328.00
2023-05-03T01:52:45.111Z,93328.00
2023-05-03T01:53:45.113Z,93324.00
2023-05-03T01:54:45.167Z,93328.00
2023-05-03T01:55:45.221Z,93324.00
2023-05-03T01:56:45.240Z,93328.00
2023-05-03T01:57:45.296Z,93326.00
2023-05-03T01:58:45.335Z,93326.00
2023-05-03T01:59:45.379Z,93326.00
2023-05-03T02:00:45.459Z,93330.00
2023-05-03T02:01:45.482Z,93330.00
2023-05-03T02:02:45.654Z,93332.00
2023-05-03T02:03:45.563Z,93332.00
2023-05-03T02:04:45.647Z,93332.00
2023-05-03T02:05:45.677Z,93332.00
2023-05-03T02:06:45.732Z,93334.00
2023-05-03T02:07:45.759Z,93332.00
2023-05-03T02:08:45.802Z,93334.00
2023-05-03T02:09:46.644Z,93334.00
2023-05-03T02:10:45.895Z,93332.00
2023-05-03T02:11:45.963Z,93334.00
2023-05-03T02:12:46.014Z,93334.00
2023-05-03T02:13:46.045Z,93332.00
2023-05-03T02:14:46.091Z,93334.00
2023-05-03T02:15:46.141Z,93334.00
2023-05-03T02:16:46.204Z,93336.00
2023-05-03T02:17:46.339Z,93332.00
2023-05-03T02:18:46.272Z,93332.00
2023-05-03T02:19:46.311Z,93336.00
2023-05-03T02:20:46.368Z,93338.00
2023-05-03T02:21:46.405Z,93338.00
2023-05-03T02:22:46.489Z,93338.00
2023-05-03T02:23:46.503Z,93338.00
2023-05-03T02:24:46.548Z,93338.00
2023-05-03T02:25:46.619Z,93340.00
2023-05-03T02:26:46.674Z,93338.00
2023-05-03T02:27:46.758Z,93340.00
2023-05-03T02:28:46.766Z,93338.00
2023-05-03T02:29:46.792Z,93340.00
2023-05-03T02:30:46.855Z,93338.00
2023-05-03T02:31:46.883Z,93340.00
2023-05-03T02:32:46.971Z,93338.00
2023-05-03T02:33:46.972Z,93342.00
2023-05-03T02:34:47.096Z,93342.00
2023-05-03T02:35:47.079Z,93342.00
2023-05-03T02:36:47.125Z,93344.00
2023-05-03T02:37:47.217Z,93342.00
2023-05-03T02:38:47.215Z,93342.00
2023-05-03T02:39:47.277Z,93340.00
2023-05-03T02:40:47.330Z,93342.00
2023-05-03T02:41:47.370Z,93340.00
2023-05-03T02:42:47.418Z,93340.00
2023-05-03T02:43:47.525Z,93338.00
2023-05-03T02:44:47.511Z,93338.00
2023-05-03T02:45:47.577Z,93338.00
2023-05-03T02:46:47.637Z,93340.00
2023-05-03T02:47:47.707Z,93338.00
2023-05-03T02:48:47.687Z,93338.00
2023-05-03T02:49:47.751Z,93338.00
2023-05-03T02:50:47.791Z,93338.00
2023-05-03T02:51:47.877Z,93338.00
2023-05-03T02:52:47.860Z,93336.00
2023-05-03T02:53:47.930Z,93338.00
2023-05-03T02:54:47.950Z,93338.00
2023-05-03T02:55:47.995Z,93342.00
2023-05-03T02:56:48.045Z,93340.00
2023-05-03T02:57:48.084Z,93338.00
2023-05-03T02:58:48.162Z,93342.00
2023-05-03T02:59:48.184Z,93342.00
2023-05-03T03:00:48.234Z,93344.00
2023-05-03T03:01:48.311Z,93342.00
2023-05-03T03:02:48.432Z,93342.00
2023-05-03T03:03:48.415Z,93340.00
2023-05-03T03:04:48.430Z,93342.00
2023-05-03T03:05:48.475Z,93340.00
2023-05-03T03:06:48.595Z,93336.00
2023-05-03T03:07:48.572Z,93340.00
2023-05-03T03:08:48.619Z,93342.00
2023-05-03T03:09:48.723Z,93342.00
2023-05-03T03:10:48.720Z,93342.00
2023-05-03T03:11:48.758Z,93342.00
2023-05-03T03:12:48.807Z,93342.00
2023-05-03T03:13:48.842Z,93342.00
2023-05-03T03:14:48.895Z,93342.00
2023-05-03T03:15:48.972Z,93342.00
2023-05-03T03:16:49.000Z,93342.00
2023-05-03T03:17:49.133Z,93340.00
2023-05-03T03:18:49.088Z,93340.00
2023-05-03T03:19:49.136Z,93342.00
2023-05-03T03:20:49.194Z,93342.00
2023-05-03T03:21:49.245Z,93344.00
2023-05-03T03:22:49.290Z,93342.00
2023-05-03T03:23:49.336Z,93346.00
2023-05-03T03:24:49.392Z,93346.00
2023-05-03T03:25:49.424Z,93346.00
2023-05-03T03:26:49.485Z,93344.00
2023-05-03T03:27:49.519Z,93348.00
2023-05-03T03:28:49.567Z,93348.00
2023-05-03T03:29:49.625Z,93344.00
2023-05-03T03:30:50.100Z,93344.00
2023-05-03T03:31:49.772Z,93344.00
2023-05-03T03:32:49.800Z,93342.00
2023-05-03T03:33:49.792Z,93344.00
2023-05-03T03:34:49.835Z,93342.00
2023-05-03T03:35:49.890Z,93342.00
2023-05-03T03:36:49.943Z,93340.00
2023-05-03T03:37:49.968Z,93346.00
2023-05-03T03:38:50.026Z,93342.00
2023-05-03T03:39:50.078Z,93346.00
2023-05-03T03:40:50.127Z,93344.00
2023-05-03T03:41:50.163Z,93344.00
2023-05-03T03:42:50.231Z,93346.00
2023-05-03T03:43:51.156Z,93348.00
2023-05-03T03:44:50.312Z,93346.00
2023-05-03T03:45:50.363Z,93344.00
2023-05-03T03:46:50.452Z,93348.00
2023-05-03T03:47:51.573Z,93344.00
2023-05-03T03:48:50.529Z,93346.00
2023-05-03T03:49:50.566Z,93344.00
2023-05-03T03:50:50.618Z,93346.00
2023-05-03T03:51:51.099Z,93344.00
2023-05-03T03:52:50.720Z,93344.00
2023-05-03T03:53:50.762Z,93344.00
2023-05-03T03:54:50.816Z,93344.00
2023-05-03T03:55:50.889Z,93344.00
2023-05-03T03:56:50.916Z,93346.00
2023-05-03T03:57:50.962Z,93346.00
2023-05-03T03:58:51.011Z,93346.00
2023-05-03T03:59:51.060Z,93348.00
2023-05-03T04:00:51.106Z,93346.00
2023-05-03T04:01:51.181Z,93344.00
2023-05-03T04:02:51.361Z,93346.00
2023-05-03T04:03:51.400Z,93348.00
2023-05-03T04:04:51.300Z,93350.00
2023-05-03T04:05:51.333Z,93350.00
2023-05-03T04:06:51.436Z,93350.00
2023-05-03T04:07:51.442Z,93357.00
2023-05-03T04:08:51.487Z,93357.00
2023-05-03T04:09:51.536Z,93357.00
2023-05-03T04:10:51.576Z,93357.00
2023-05-03T04:11:51.636Z,93357.00
2023-05-03T04:12:51.676Z,93359.00
2023-05-03T04:13:51.716Z,93361.00
2023-05-03T04:14:51.779Z,93361.00
2023-05-03T04:15:51.806Z,93361.00
2023-05-03T04:16:51.900Z,93363.00
2023-05-03T04:17:51.947Z,93365.00
2023-05-03T04:18:51.958Z,93367.00
2023-05-03T04:19:51.995Z,93367.00
2023-05-03T04:20:52.047Z,93365.00
2023-05-03T04:21:52.096Z,93365.00
2023-05-03T04:22:52.143Z,93365.00
2023-05-03T04:23:52.200Z,93367.00
2023-05-03T04:24:52.235Z,93365.00
2023-05-03T04:25:52.271Z,93371.00
2023-05-03T04:26:52.316Z,93367.00
2023-05-03T04:27:52.363Z,93367.00
2023-05-03T04:28:52.415Z,93371.00
2023-05-03T04:29:53.092Z,93369.00
2023-05-03T04:30:52.586Z,93373.00
2023-05-03T04:31:52.559Z,93371.00
2023-05-03T04:32:52.648Z,93373.00
2023-05-03T04:33:52.664Z,93375.00
2023-05-03T04:34:53.970Z,93373.00
2023-05-03T04:35:52.754Z,93371.00
2023-05-03T04:36:52.798Z,93375.00
2023-05-03T04:37:52.845Z,93373.00
2023-05-03T04:38:52.883Z,93373.00
2023-05-03T04:39:52.940Z,93373.00
2023-05-03T04:40:52.993Z,93375.00
2023-05-03T04:41:53.031Z,93375.00
2023-05-03T04:42:53.117Z,93375.00
2023-05-03T04:43:53.131Z,93377.00
2023-05-03T04:44:53.167Z,93377.00
2023-05-03T04:45:53.242Z,93377.00
2023-05-03T04:46:53.357Z,93377.00
2023-05-03T04:47:53.382Z,93379.00
2023-05-03T04:48:53.341Z,93377.00
2023-05-03T04:49:53.392Z,93379.00
2023-05-03T04:50:53.444Z,93381.00
2023-05-03T04:51:54.500Z,93383.00
2023-05-03T04:52:53.519Z,93383.00
2023-05-03T04:53:53.642Z,93383.00
2023-05-03T04:54:53.610Z,93385.00
2023-05-03T04:55:53.644Z,93383.00
2023-05-03T04:56:53.705Z,93383.00
2023-05-03T04:57:53.712Z,93383.00
2023-05-03T04:58:53.768Z,93383.00
2023-05-03T04:59:53.805Z,93383.00
2023-05-03T05:00:53.844Z,93381.00
2023-05-03T05:01:53.918Z,93385.00
2023-05-03T05:02:53.988Z,93385.00
2023-05-03T05:03:54.058Z,93383.00
2023-05-03T05:04:54.060Z,93383.00
2023-05-03T05:05:54.072Z,93385.00
2023-05-03T05:06:54.220Z,93383.00
2023-05-03T05:07:54.152Z,93383.00
2023-05-03T05:08:54.194Z,93385.00
2023-05-03T05:09:54.236Z,93385.00
2023-05-03T05:10:54.295Z,93387.00
2023-05-03T05:11:56.229Z,93387.00
2023-05-03T05:12:54.312Z,93385.00
2023-05-03T05:13:54.376Z,93385.00
2023-05-03T05:14:54.273Z,93387.00
2023-05-03T05:15:54.250Z,93383.00
2023-05-03T05:16:54.269Z,93383.00
2023-05-03T05:17:54.344Z,93389.00
2023-05-03T05:18:54.180Z,93391.00
2023-05-03T05:19:54.198Z,93395.00
2023-05-03T05:20:54.134Z,93395.00
2023-05-03T05:21:54.108Z,93397.00
2023-05-03T05:22:54.078Z,93391.00
2023-05-03T05:23:54.070Z,93397.00
2023-05-03T05:24:54.089Z,93399.00
2023-05-03T05:25:54.041Z,93399.00
2023-05-03T05:26:54.146Z,93401.00
2023-05-03T05:27:53.982Z,93399.00
2023-05-03T05:28:53.994Z,93401.00
2023-05-03T05:29:53.922Z,93403.00
2023-05-03T05:30:53.896Z,93403.00
2023-05-03T05:31:53.994Z,93401.00
2023-05-03T05:32:53.870Z,93401.00
2023-05-03T05:33:53.813Z,93399.00
2023-05-03T05:34:53.794Z,93397.00
2023-05-03T05:35:53.776Z,93397.00
2023-05-03T05:36:53.746Z,93393.00
2023-05-03T05:37:53.722Z,93393.00
2023-05-03T05:38:53.761Z,93393.00
2023-05-03T05:39:53.687Z,93395.00
2023-05-03T05:40:53.652Z,93393.00
2023-05-03T05:41:54.516Z,93393.00
2023-05-03T05:42:53.610Z,93395.00
2023-05-03T05:43:53.598Z,93393.00
2023-05-03T05:44:53.573Z,93391.00
2023-05-03T05:45:53.544Z,93391.00
2023-05-03T05:46:53.610Z,93395.00
2023-05-03T05:47:53.569Z,93389.00
2023-05-03T05:48:53.474Z,93391.00
2023-05-03T05:49:53.442Z,93395.00
2023-05-03T05:50:53.418Z,93399.00
2023-05-03T05:51:53.409Z,93399.00
2023-05-03T05:52:53.444Z,93399.00
2023-05-03T05:53:53.438Z,93399.00
2023-05-03T05:54:53.420Z,93401.00
2023-05-03T05:55:53.444Z,93403.00
2023-05-03T05:56:53.596Z,93397.00
2023-05-03T05:57:53.533Z,93399.00
2023-05-03T05:58:53.679Z,93397.00
2023-05-03T05:59:54.259Z,93397.00
2023-05-03T06:00:53.617Z,93393.00
2023-05-03T06:01:53.674Z,93395.00
2023-05-03T06:02:53.764Z,93395.00
2023-05-03T06:03:53.719Z,93393.00
2023-05-03T06:04:53.771Z,93395.00
2023-05-03T06:05:53.851Z,93393.00
2023-05-03T06:06:54.004Z,93395.00
2023-05-03T06:07:53.837Z,93391.00
2023-05-03T06:08:53.887Z,93393.00
2023-05-03T06:09:53.890Z,93393.00
2023-05-03T06:10:53.912Z,93393.00
2023-05-03T06:11:53.944Z,93393.00
2023-05-03T06:12:53.979Z,93395.00
2023-05-03T06:13:54.025Z,93393.00
2023-05-03T06:15:02.337Z,93393.00
2023-05-03T06:15:55.052Z,93389.00
2023-05-03T06:16:54.704Z,93387.00
2023-05-03T06:17:54.001Z,93387.00
2023-05-03T06:18:53.948Z,93391.00
2023-05-03T06:19:53.942Z,93389.00
2023-05-03T06:20:53.897Z,93385.00
2023-05-03T06:21:53.877Z,93387.00
2023-05-03T06:22:53.852Z,93393.00
2023-05-03T06:23:53.977Z,93391.00
2023-05-03T06:24:53.969Z,93389.00
2023-05-03T06:25:53.877Z,93387.00
2023-05-03T06:26:53.906Z,93385.00
2023-05-03T06:27:53.937Z,93387.00
2023-05-03T06:28:53.958Z,93387.00
2023-05-03T06:29:53.980Z,93387.00
2023-05-03T06:30:54.014Z,93389.00
2023-05-03T06:31:54.017Z,93387.00
2023-05-03T06:32:54.052Z,93389.00
2023-05-03T06:33:54.068Z,93389.00
2023-05-03T06:34:54.079Z,93389.00
2023-05-03T06:35:54.095Z,93387.00
2023-05-03T06:36:55.094Z,93391.00
2023-05-03T06:37:55.020Z,93391.00
2023-05-03T06:38:54.151Z,93389.00
2023-05-03T06:39:54.282Z,93393.00
2023-05-03T06:40:56.169Z,93391.00
2023-05-03T06:41:54.212Z,93391.00
2023-05-03T06:42:54.227Z,93391.00
2023-05-03T06:43:54.258Z,93393.00
2023-05-03T06:44:54.313Z,93391.00
2023-05-03T06:45:54.333Z,93391.00
2023-05-03T06:46:54.436Z,93393.00
2023-05-03T06:47:54.480Z,93393.00
2023-05-03T06:48:54.414Z,93387.00
2023-05-03T06:49:54.433Z,93389.00
2023-05-03T06:50:54.469Z,93389.00
2023-05-03T06:51:54.514Z,93389.00
2023-05-03T06:52:54.563Z,93389.00
2023-05-03T06:53:54.546Z,93389.00
2023-05-03T06:54:54.633Z,93387.00
2023-05-03T06:55:54.608Z,93387.00
2023-05-03T06:56:54.669Z,93387.00
2023-05-03T06:57:54.681Z,93387.00
2023-05-03T06:58:54.701Z,93385.00
2023-05-03T06:59:54.739Z,93381.00
2023-05-03T07:00:54.751Z,93381.00
2023-05-03T07:01:54.926Z,93383.00
2023-05-03T07:02:54.896Z,93381.00
2023-05-03T07:03:54.881Z,93381.00
2023-05-03T07:04:54.854Z,93381.00
2023-05-03T07:05:54.886Z,93381.00
2023-05-03T07:06:56.669Z,93381.00
2023-05-03T07:07:54.942Z,93379.00
2023-05-03T07:08:54.975Z,93379.00
2023-05-03T07:09:55.015Z,93381.00
2023-05-03T07:10:55.024Z,93379.00
2023-05-03T07:11:55.056Z,93375.00
2023-05-03T07:12:55.081Z,93373.00
2023-05-03T07:13:55.134Z,93369.00
2023-05-03T07:14:55.158Z,93373.00
2023-05-03T07:15:55.256Z,93373.00
2023-05-03T07:16:55.165Z,93369.00
2023-05-03T07:17:55.293Z,93371.00
2023-05-03T07:18:55.198Z,93369.00
2023-05-03T07:19:55.146Z,93365.00
2023-05-03T07:20:55.084Z,93367.00
2023-05-03T07:21:55.093Z,93367.00
2023-05-03T07:22:55.066Z,93365.00
2023-05-03T07:23:55.011Z,93367.00
2023-05-03T07:24:55.115Z,93365.00
2023-05-03T07:25:55.021Z,93365.00
2023-05-03T07:26:55.034Z,93361.00
2023-05-03T07:27:55.255Z,93359.00
2023-05-03T07:28:55.079Z,93361.00
2023-05-03T07:29:55.087Z,93359.00
2023-05-03T07:30:55.235Z,93350.00
2023-05-03T07:31:55.127Z,93357.00
2023-05-03T07:32:55.237Z,93350.00
2023-05-03T07:33:56.228Z,93357.00
2023-05-03T07:34:55.266Z,93350.00
2023-05-03T07:35:55.232Z,93350.00
2023-05-03T07:36:55.265Z,93348.00
2023-05-03T07:37:55.289Z,93348.00
2023-05-03T07:38:56.767Z,93346.00
2023-05-03T07:39:55.245Z,93346.00
2023-05-03T07:40:55.248Z,93344.00
2023-05-03T07:41:55.196Z,93340.00
2023-05-03T07:42:55.170Z,93342.00
2023-05-03T07:43:55.213Z,93342.00
2023-05-03T07:44:55.130Z,93340.00
2023-05-03T07:45:55.199Z,93340.00
2023-05-03T07:46:55.080Z,93338.00
2023-05-03T07:47:55.112Z,93340.00
2023-05-03T07:48:55.104Z,93340.00
2023-05-03T07:49:54.994Z,93338.00
2023-05-03T07:50:54.969Z,93336.00
2023-05-03T07:51:54.956Z,93336.00
2023-05-03T07:52:54.933Z,93336.00
2023-05-03T07:53:54.891Z,93336.00
2023-05-03T07:54:54.873Z,93336.00
2023-05-03T07:55:54.853Z,93334.00
2023-05-03T07:56:55.712Z,93332.00
2023-05-03T07:57:54.818Z,93328.00
2023-05-03T07:59:05.186Z,93332.00
2023-05-03T07:59:55.782Z,93328.00
2023-05-03T08:00:54.747Z,93328.00
2023-05-03T08:01:54.835Z,93330.00
2023-05-03T08:02:54.859Z,93330.00
2023-05-03T08:03:54.798Z,93328.00
2023-05-03T08:04:54.956Z,93330.00
2023-05-03T08:05:54.692Z,93330.00
2023-05-03T08:06:54.684Z,93328.00
2023-05-03T08:07:54.591Z,93328.00
2023-05-03T08:08:54.567Z,93330.00
2023-05-03T08:09:54.568Z,93326.00
2023-05-03T08:10:54.650Z,93326.00
2023-05-03T08:11:54.611Z,93326.00
2023-05-03T08:12:55.672Z,93326.00
2023-05-03T08:13:54.680Z,93326.00
2023-05-03T08:14:54.685Z,93326.00
2023-05-03T08:15:54.848Z,93324.00
2023-05-03T08:16:54.722Z,93320.00
2023-05-03T08:17:55.245Z,93320.00
2023-05-03T08:18:54.762Z,93319.00
2023-05-03T08:19:54.783Z,93320.00
2023-05-03T08:20:54.808Z,93320.00
2023-05-03T08:21:54.976Z,93319.00
2023-05-03T08:22:54.824Z,93320.00
2023-05-03T08:23:54.848Z,93319.00
2023-05-03T08:24:54.884Z,93322.00
2023-05-03T08:25:54.971Z,93320.00
2023-05-03T08:26:54.944Z,93322.00
2023-05-03T08:27:54.961Z,93322.00
2023-05-03T08:28:54.936Z,93322.00
2023-05-03T08:29:54.925Z,93326.00
2023-05-03T08:30:54.899Z,93320.00
2023-05-03T08:31:55.007Z,93322.00
2023-05-03T08:32:54.921Z,93320.00
2023-05-03T08:33:54.842Z,93319.00
2023-05-03T08:34:54.875Z,93320.00
2023-05-03T08:35:54.792Z,93319.00
2023-05-03T08:36:54.757Z,93319.00
2023-05-03T08:37:54.798Z,93317.00
2023-05-03T08:38:54.721Z,93317.00
2023-05-03T08:39:54.701Z,93315.00
2023-05-03T08:40:54.681Z,93313.00
2023-05-03T08:41:54.708Z,93313.00
2023-05-03T08:42:54.730Z,93311.00
2023-05-03T08:43:54.643Z,93309.00
2023-05-03T08:44:54.643Z,93309.00
2023-05-03T08:45:54.618Z,93313.00
2023-05-03T08:46:54.596Z,93309.00
2023-05-03T08:47:54.687Z,93309.00
2023-05-03T08:48:54.519Z,93309.00
2023-05-03T08:49:54.504Z,93311.00
2023-05-03T08:50:54.481Z,93309.00
2023-05-03T08:51:54.511Z,93311.00
2023-05-03T08:52:54.635Z,93307.00
2023-05-03T08:53:54.525Z,93309.00
2023-05-03T08:54:54.549Z,93305.00
2023-05-03T08:55:54.553Z,93303.00
2023-05-03T08:56:54.574Z,93305.00
2023-05-03T08:57:54.612Z,93303.00
2023-05-03T08:58:54.656Z,93303.00
2023-05-03T08:59:54.629Z,93301.00
2023-05-03T09:00:54.789Z,93299.00
2023-05-03T09:01:55.130Z,93299.00
2023-05-03T09:02:56.160Z,93301.00
2023-05-03T09:03:54.754Z,93299.00
2023-05-03T09:04:54.675Z,93297.00
2023-05-03T09:05:54.575Z,93297.00
2023-05-03T09:06:54.596Z,93297.00
2023-05-03T09:07:54.534Z,93295.00
2023-05-03T09:08:54.587Z,93295.00
2023-05-03T09:09:54.510Z,93293.00
2023-05-03T09:10:54.473Z,93291.00
2023-05-03T09:11:54.512Z,93289.00
2023-05-03T09:12:54.452Z,93289.00
2023-05-03T09:13:54.431Z,93291.00
2023-05-03T09:14:54.443Z,93289.00
2023-05-03T09:15:57.325Z,93285.00
2023-05-03T09:16:54.394Z,93285.00
2023-05-03T09:17:54.381Z,93289.00
2023-05-03T09:18:54.379Z,93283.00
2023-05-03T09:19:54.404Z,93285.00
2023-05-03T09:20:54.526Z,93283.00
2023-05-03T09:21:54.370Z,93283.00
2023-05-03T09:22:54.349Z,93283.00
2023-05-03T09:23:54.328Z,93279.00
2023-05-03T09:24:54.317Z,93283.00
2023-05-03T09:25:54.299Z,93281.00
2023-05-03T09:26:54.462Z,93277.00
2023-05-03T09:27:54.312Z,93277.00
2023-05-03T09:28:54.252Z,93277.00
2023-05-03T09:29:54.236Z,93277.00
2023-05-03T09:30:54.229Z,93273.00
2023-05-03T09:31:54.257Z,93271.00
2023-05-03T09:32:54.369Z,93271.00
2023-05-03T09:33:54.182Z,93271.00
2023-05-03T09:34:54.160Z,93265.00
2023-05-03T09:35:54.168Z,93265.00
2023-05-03T09:36:54.113Z,93265.00
2023-05-03T09:37:54.101Z,93262.00
2023-05-03T09:38:54.127Z,93262.00
2023-05-03T09:39:54.059Z,93262.00
2023-05-03T09:40:54.060Z,93262.00
2023-05-03T09:41:54.014Z,93262.00
2023-05-03T09:42:54.018Z,93262.00
2023-05-03T09:43:53.984Z,93262.00
2023-05-03T09:44:54.356Z,93258.00
2023-05-03T09:45:54.019Z,93262.00
2023-05-03T09:46:53.931Z,93258.00
2023-05-03T09:47:53.949Z,93256.00
2023-05-03T09:48:53.887Z,93252.00
2023-05-03T09:49:53.872Z,93252.00
2023-05-03T09:50:54.053Z,93248.00
2023-05-03T09:51:53.944Z,93250.00
2023-05-03T09:52:53.835Z,93252.00
2023-05-03T09:53:53.930Z,93250.00
2023-05-03T09:54:53.813Z,93250.00
2023-05-03T09:55:53.770Z,93248.00
2023-05-03T09:56:53.840Z,93248.00
2023-05-03T09:57:53.754Z,93246.00
2023-05-03T09:58:53.710Z,93246.00
2023-05-03T09:59:53.699Z,93244.00
2023-05-03T10:00:53.699Z,93242.00
2023-05-03T10:01:53.746Z,93242.00
2023-05-03T10:02:53.721Z,93240.00
2023-05-03T10:03:54.557Z,93238.00
2023-05-03T10:04:53.681Z,93236.00
2023-05-03T10:05:53.565Z,93236.00
2023-05-03T10:06:53.834Z,93236.00
2023-05-03T10:07:53.585Z,93234.00
2023-05-03T10:08:53.523Z,93234.00
2023-05-03T10:09:53.493Z,93236.00
2023-05-03T10:10:53.482Z,93232.00
2023-05-03T10:11:53.438Z,93230.00
2023-05-03T10:12:53.437Z,93228.00
2023-05-03T10:13:53.529Z,93228.00
2023-05-03T10:14:53.497Z,93226.00
2023-05-03T10:15:53.701Z,93224.00
2023-05-03T10:16:53.582Z,93224.00
2023-05-03T10:17:53.740Z,93220.00
2023-05-03T10:18:53.658Z,93222.00
2023-05-03T10:19:53.699Z,93217.00
2023-05-03T10:20:53.714Z,93215.00
2023-05-03T10:21:53.730Z,93213.00
2023-05-03T10:22:53.746Z,93213.00
2023-05-03T10:23:53.782Z,93211.00
2023-05-03T10:24:53.789Z,93209.00
2023-05-03T10:25:53.867Z,93205.00
2023-05-03T10:26:53.836Z,93205.00
2023-05-03T10:27:53.854Z,93205.00
2023-05-03T10:28:53.854Z,93205.00
2023-05-03T10:29:54.025Z,93203.00
2023-05-03T10:30:53.939Z,93207.00
2023-05-03T10:31:53.947Z,93205.00
2023-05-03T10:32:53.959Z,93201.00
2023-05-03T10:33:53.984Z,93201.00
2023-05-03T10:34:54.114Z,93199.00
2023-05-03T10:35:53.972Z,93195.00
2023-05-03T10:36:54.012Z,93195.00
2023-05-03T10:37:54.018Z,93191.00
2023-05-03T10:38:54.026Z,93191.00
2023-05-03T10:39:54.059Z,93187.00
2023-05-03T10:40:54.068Z,93189.00
2023-05-03T10:41:54.078Z,93187.00
2023-05-03T10:42:54.105Z,93185.00
2023-05-03T10:43:54.112Z,93187.00
2023-05-03T10:44:54.132Z,93185.00
2023-05-03T10:45:54.278Z,93185.00
2023-05-03T10:46:54.739Z,93185.00
2023-05-03T10:47:54.254Z,93185.00
2023-05-03T10:48:54.248Z,93187.00
2023-05-03T10:49:55.127Z,93187.00
2023-05-03T10:50:54.263Z,93187.00
2023-05-03T10:51:54.225Z,93181.00
2023-05-03T10:52:54.243Z,93181.00
2023-05-03T10:53:54.234Z,93185.00
2023-05-03T10:54:54.251Z,93179.00
2023-05-03T10:55:54.267Z,93177.00
2023-05-03T10:56:54.301Z,93177.00
2023-05-03T10:57:54.275Z,93177.00
2023-05-03T10:58:54.295Z,93175.00
2023-05-03T10:59:55.111Z,93175.00
2023-05-03T11:00:55.100Z,93177.00
2023-05-03T11:01:54.428Z,93177.00
2023-05-03T11:02:54.527Z,93169.00
2023-05-03T11:03:54.664Z,93171.00
2023-05-03T11:04:54.429Z,93169.00
2023-05-03T11:05:54.405Z,93163.00
2023-05-03T11:06:54.456Z,93167.00
2023-05-03T11:07:54.449Z,93169.00
2023-05-03T11:08:54.455Z,93165.00
2023-05-03T11:09:54.454Z,93169.00
2023-05-03T11:10:54.503Z,93162.00
2023-05-03T11:11:54.589Z,93162.00
2023-05-03T11:12:55.095Z,93162.00
2023-05-03T11:13:54.550Z,93160.00
2023-05-03T11:14:54.493Z,93156.00
2023-05-03T11:15:54.516Z,93158.00
2023-05-03T11:16:54.607Z,93158.00
2023-05-03T11:17:54.622Z,93158.00
2023-05-03T11:18:54.526Z,93158.00
2023-05-03T11:19:54.564Z,93158.00
2023-05-03T11:20:54.511Z,93152.00
2023-05-03T11:21:54.525Z,93154.00
2023-05-03T11:22:54.617Z,93154.00
2023-05-03T11:23:54.530Z,93150.00
2023-05-03T11:24:54.535Z,93148.00
2023-05-03T11:25:54.532Z,93150.00
2023-05-03T11:26:54.568Z,93148.00
2023-05-03T11:27:54.656Z,93148.00
2023-05-03T11:28:54.687Z,93148.00
2023-05-03T11:29:54.572Z,93154.00
2023-05-03T11:30:54.572Z,93150.00
2023-05-03T11:31:54.633Z,93146.00
2023-05-03T11:32:54.699Z,93154.00
2023-05-03T11:33:54.617Z,93146.00
2023-05-03T11:34:54.581Z,93144.00
2023-05-03T11:35:54.614Z,93138.00
2023-05-03T11:36:54.564Z,93146.00
2023-05-03T11:37:54.584Z,93140.00
2023-05-03T11:38:54.579Z,93138.00
2023-05-03T11:39:54.698Z,93138.00
2023-05-03T11:40:54.596Z,93138.00
2023-05-03T11:41:54.651Z,93140.00
2023-05-03T11:42:54.585Z,93142.00
2023-05-03T11:44:03.869Z,93140.00
2023-05-03T11:44:55.580Z,93136.00